Time;durP1;ratioP1;P1;durP2;ratioP2;P2;SDS_P1;SDS_P2;PMS_P1;PMS_P2;Temp;Humidity;BMP_temperature;BMP_pressure;BME280_temperature;BME280_humidity;BME280_pressure;Samples;Min_cycle;Max_cycle;Signal;HPM_P1;HPM_P2
2023/01/10 00:00:16;;;;;;;13.52;3.53;;;;;;;3.09;100.00;100940.94;1038900;28;20315;-78
2023/01/10 00:00:48;;;;;;;15.10;3.17;;;;;;;3.08;100.00;100945.38;1040801;28;20307;-78
2023/01/10 00:01:19;;;;;;;18.25;2.55;;;;;;;3.09;100.00;100940.94;1041191;28;20322;-78
2023/01/10 00:01:51;;;;;;;20.23;4.90;;;;;;;3.10;100.00;100945.22;1036883;28;20323;-78
2023/01/10 00:02:23;;;;;;;10.45;3.67;;;;;;;3.05;100.00;100950.16;1029070;28;20355;-78
2023/01/10 00:02:55;;;;;;;14.05;3.05;;;;;;;3.02;100.00;100942.59;1029454;28;20802;-78
2023/01/10 00:03:27;;;;;;;25.65;3.00;;;;;;;3.03;100.00;100938.97;1028141;28;20420;-78
2023/01/10 00:03:58;;;;;;;15.82;2.75;;;;;;;3.03;100.00;100949.50;1030699;28;20294;-78
2023/01/10 00:04:30;;;;;;;21.55;3.42;;;;;;;3.02;100.00;100955.75;1036620;28;20405;-78
2023/01/10 00:05:02;;;;;;;14.75;3.67;;;;;;;3.03;100.00;100960.03;1045755;28;20322;-78
2023/01/10 00:05:35;;;;;;;12.43;2.30;;;;;;;2.97;100.00;100952.75;1047467;28;20299;-78
2023/01/10 00:06:07;;;;;;;9.80;2.70;;;;;;;2.98;100.00;100957.03;1047123;28;20345;-78
2023/01/10 00:06:38;;;;;;;12.90;2.97;;;;;;;2.96;100.00;100948.50;1044527;28;20349;-78
2023/01/10 00:07:10;;;;;;;21.83;3.45;;;;;;;2.92;100.00;100955.06;1039336;28;20300;-78
2023/01/10 00:07:41;;;;;;;10.80;3.72;;;;;;;2.90;100.00;100957.03;1035412;28;20305;-78
2023/01/10 00:08:15;;;;;;;17.85;3.13;;;;;;;2.97;100.00;100963.28;1031200;28;20289;-78
2023/01/10 00:08:46;;;;;;;14.07;3.10;;;;;;;2.92;100.00;100960.31;1029889;28;20715;-78
2023/01/10 00:09:18;;;;;;;14.52;2.60;;;;;;;2.87;100.00;100967.88;1029590;28;20309;-78
2023/01/10 00:09:49;;;;;;;9.27;3.15;;;;;;;2.92;100.00;100962.97;1028670;28;20302;-78
2023/01/10 00:10:22;;;;;;;10.70;2.78;;;;;;;2.94;100.00;100968.88;1037652;28;20307;-77
2023/01/10 00:10:54;;;;;;;15.55;6.22;;;;;;;2.93;100.00;100972.50;1037642;28;20304;-78
2023/01/10 00:13:24;;;;;;;8.40;3.03;;;;;;;2.93;100.00;100978.56;1040666;28;20824;-78
2023/01/10 00:13:56;;;;;;;12.85;2.60;;;;;;;2.98;100.00;100985.97;1038575;28;20312;-78
2023/01/10 00:14:28;;;;;;;7.57;2.33;;;;;;;2.96;100.00;100983.50;1036975;28;20311;-78
2023/01/10 00:14:59;;;;;;;23.38;2.88;;;;;;;2.97;100.00;100989.59;1031399;28;20371;-78
2023/01/10 00:15:32;;;;;;;13.13;2.55;;;;;;;2.96;100.00;100991.41;1029750;28;20827;-78
2023/01/10 00:16:07;;;;;;;10.18;2.92;;;;;;;2.97;100.00;101000.13;1033853;28;20320;-78
2023/01/10 00:16:39;;;;;;;11.90;3.08;;;;;;;2.97;100.00;100995.69;1034849;28;20624;-78
2023/01/10 00:17:11;;;;;;;13.35;2.80;;;;;;;2.96;100.00;100995.84;1040592;28;20304;-78
2023/01/10 00:17:42;;;;;;;10.27;2.58;;;;;;;3.00;100.00;101005.06;1044427;28;20330;-78
2023/01/10 00:18:14;;;;;;;16.13;3.13;;;;;;;3.00;100.00;100999.78;1040102;28;20731;-78
2023/01/10 00:18:45;;;;;;;11.48;2.83;;;;;;;3.00;100.00;101002.44;1045039;28;20313;-78
2023/01/10 00:19:17;;;;;;;12.13;4.72;;;;;;;3.03;100.00;100996.88;1039672;28;20300;-78
2023/01/10 00:19:48;;;;;;;16.52;3.22;;;;;;;3.03;100.00;101002.13;1038389;28;20435;-78
2023/01/10 00:20:20;;;;;;;9.90;2.53;;;;;;;3.06;100.00;101004.44;1042732;28;20303;-78
2023/01/10 00:20:52;;;;;;;10.50;2.70;;;;;;;3.07;100.00;101013.97;1038797;28;20810;-78
2023/01/10 00:21:23;;;;;;;13.20;3.35;;;;;;;3.08;100.00;101007.72;1043769;28;20291;-78
2023/01/10 00:21:57;;;;;;;13.55;3.83;;;;;;;3.12;100.00;101003.75;1043624;28;20353;-78
2023/01/10 00:22:28;;;;;;;16.70;2.63;;;;;;;3.13;100.00;101010.69;1038831;28;20705;-78
2023/01/10 00:23:00;;;;;;;10.52;2.58;;;;;;;3.16;100.00;101005.09;1045558;28;20294;-78
2023/01/10 00:23:31;;;;;;;15.25;2.63;;;;;;;3.16;100.00;101009.53;1042940;28;20307;-78
2023/01/10 00:24:15;;;;;;;17.80;3.33;;;;;;;3.20;100.00;101014.28;1043409;28;20915;-79
2023/01/10 00:24:47;;;;;;;14.40;2.65;;;;;;;3.21;100.00;101018.56;1046384;28;20656;-78
2023/01/10 00:25:21;;;;;;;13.00;2.83;;;;;;;3.25;100.00;101019.88;1043431;28;20315;-78
2023/01/10 00:25:53;;;;;;;13.93;2.53;;;;;;;3.28;100.00;101013.47;1046974;28;20856;-78
2023/01/10 00:26:24;;;;;;;15.18;3.05;;;;;;;3.31;100.00;101016.63;1044189;28;20307;-78
2023/01/10 00:26:56;;;;;;;17.98;2.95;;;;;;;3.36;100.00;101016.94;1043063;28;20299;-78
2023/01/10 00:27:28;;;;;;;9.63;3.25;;;;;;;3.37;100.00;101017.75;1039192;28;20315;-78
2023/01/10 00:28:51;;;;;;;14.63;4.55;;;;;;;3.34;100.00;101018.09;1032884;28;20297;-78
2023/01/10 00:29:27;;;;;;;12.75;3.13;;;;;;;3.40;100.00;101027.97;1037114;28;20099;-78
2023/01/10 00:30:00;;;;;;;16.50;2.85;;;;;;;3.44;100.00;101025.81;1030916;28;20297;-78
2023/01/10 00:30:34;;;;;;;14.10;3.25;;;;;;;3.45;100.00;101030.09;1036245;28;20650;-78
2023/01/10 00:31:05;;;;;;;9.18;2.58;;;;;;;3.46;100.00;101018.56;1041684;28;20303;-78
2023/01/10 00:31:37;;;;;;;14.95;3.00;;;;;;;3.42;100.00;101026.81;1035986;28;20782;-78
2023/01/10 00:32:09;;;;;;;15.98;2.85;;;;;;;3.41;100.00;101025.16;1043320;28;20299;-78
2023/01/10 00:32:41;;;;;;;8.93;2.85;;;;;;;3.44;100.00;101028.44;1043519;28;20374;-78
2023/01/10 00:33:19;;;;;;;16.25;4.20;;;;;;;3.44;100.00;101029.28;1044355;28;20299;-78
2023/01/10 00:33:51;;;;;;;10.95;2.97;;;;;;;3.41;100.00;101022.53;1045346;28;20322;-79
2023/01/10 00:34:23;;;;;;;10.57;3.63;;;;;;;3.45;100.00;101030.09;1045714;28;20384;-78
2023/01/10 00:34:54;;;;;;;19.80;2.60;;;;;;;3.46;100.00;101031.75;1045695;28;20302;-78
2023/01/10 00:35:26;;;;;;;8.60;2.67;;;;;;;3.50;100.00;101030.41;1043170;28;20338;-78
2023/01/10 00:36:01;;;;;;;14.10;3.83;;;;;;;3.56;100.00;101032.38;1046184;28;20318;-78
2023/01/10 00:36:33;;;;;;;14.32;3.25;;;;;;;3.53;100.00;101032.72;1042419;28;20661;-78
2023/01/10 00:37:05;;;;;;;11.90;2.70;;;;;;;3.52;100.00;101036.34;1046314;28;20313;-78
2023/01/10 00:37:38;;;;;;;14.05;3.50;;;;;;;3.53;100.00;101037.97;1041841;28;20662;-78
2023/01/10 00:38:09;;;;;;;20.35;2.45;;;;;;;3.57;100.00;101034.06;1041548;28;20307;-78
2023/01/10 00:38:41;;;;;;;16.35;3.00;;;;;;;3.57;100.00;101034.06;1034805;28;20316;-78
2023/01/10 00:39:13;;;;;;;21.38;3.88;;;;;;;3.58;100.00;101031.25;1038313;28;20339;-78
2023/01/10 00:39:45;;;;;;;9.32;3.28;;;;;;;3.57;100.00;101045.41;1039344;28;20295;-78
2023/01/10 00:40:16;;;;;;;18.38;4.38;;;;;;;3.57;100.00;101049.84;1039724;28;20300;-78
2023/01/10 00:40:48;;;;;;;18.10;3.00;;;;;;;3.62;100.00;101037.00;1043202;28;20685;-78
2023/01/10 00:43:57;;;;;;;11.13;2.28;;;;;;;3.71;100.00;101043.91;1041420;28;20115;-78
2023/01/10 00:44:29;;;;;;;15.02;3.55;;;;;;;3.73;100.00;101044.56;1041171;28;20288;-78
2023/01/10 00:45:00;;;;;;;6.63;2.33;;;;;;;3.75;100.00;101044.41;1034945;28;20297;-78
2023/01/10 00:45:32;;;;;;;12.00;2.35;;;;;;;3.76;100.00;101048.66;1039502;28;20315;-78
2023/01/10 00:46:03;;;;;;;11.88;3.00;;;;;;;3.77;100.00;101047.69;1043649;28;20291;-78
2023/01/10 00:46:35;;;;;;;22.00;5.13;;;;;;;3.81;100.00;101044.53;1035222;28;20955;-78
2023/01/10 00:47:07;;;;;;;14.40;3.10;;;;;;;3.82;100.00;101048.81;1032435;28;20309;-78
2023/01/10 00:47:38;;;;;;;15.05;3.50;;;;;;;3.82;100.00;101048.00;1039439;28;20307;-78
2023/01/10 00:48:11;;;;;;;9.27;3.15;;;;;;;3.84;100.00;101056.59;1035545;28;20658;-78
2023/01/10 00:48:42;;;;;;;27.25;4.53;;;;;;;3.88;100.00;101048.19;1035636;28;20319;-78
2023/01/10 00:49:15;;;;;;;19.92;4.70;;;;;;;3.82;100.00;101051.47;1039925;28;20379;-78
2023/01/10 00:49:46;;;;;;;11.45;3.63;;;;;;;3.82;100.00;101051.47;1037671;28;20299;-78
2023/01/10 00:50:18;;;;;;;8.93;3.95;;;;;;;3.84;100.00;101065.31;1031582;28;20305;-78
2023/01/10 00:50:49;;;;;;;6.47;2.70;;;;;;;3.86;100.00;101055.44;1038253;28;20395;-78
2023/01/10 00:51:21;;;;;;;14.98;3.90;;;;;;;3.85;100.00;101056.41;1034683;28;20301;-78
2023/01/10 00:51:56;;;;;;;13.93;2.92;;;;;;;3.85;100.00;101056.41;1040762;28;20307;-78
2023/01/10 00:52:28;;;;;;;16.42;3.05;;;;;;;3.88;100.00;101061.34;1047309;28;20298;-78
2023/01/10 00:53:00;;;;;;;13.35;3.35;;;;;;;3.90;100.00;101062.00;1043421;28;20370;-78
2023/01/10 00:53:31;;;;;;;26.05;7.22;;;;;;;3.92;100.00;101059.19;1045890;28;20302;-78
2023/01/10 00:54:04;;;;;;;15.77;3.40;;;;;;;3.93;100.00;101059.03;1040781;28;21453;-78
2023/01/10 00:54:36;;;;;;;27.77;4.93;;;;;;;4.02;100.00;101059.81;1041416;28;20799;-78
2023/01/10 00:55:08;;;;;;;18.88;2.53;;;;;;;3.98;100.00;101055.88;1039935;28;20303;-78
2023/01/10 00:55:39;;;;;;;14.95;3.22;;;;;;;3.95;100.00;101059.69;1034996;28;20696;-78
2023/01/10 00:56:11;;;;;;;16.27;3.92;;;;;;;3.98;100.00;101054.06;1037110;28;20288;-78
2023/01/10 00:56:42;;;;;;;9.90;2.53;;;;;;;3.95;100.00;101054.41;1039785;28;20308;-78
2023/01/10 00:57:14;;;;;;;12.02;3.47;;;;;;;3.97;100.00;101060.34;1043705;28;20491;-78
2023/01/10 00:57:45;;;;;;;21.98;5.70;;;;;;;3.98;100.00;101058.53;1043782;28;20322;-78
2023/01/10 00:58:17;;;;;;;23.17;2.75;;;;;;;3.97;100.00;101068.25;1038792;28;20304;-78
2023/01/10 00:58:49;;;;;;;7.18;2.67;;;;;;;4.01;100.00;101064.28;1041675;28;20308;-78
2023/01/10 00:59:20;;;;;;;9.50;2.38;;;;;;;4.00;100.00;101060.00;1044035;28;20291;-79
2023/01/10 00:59:52;;;;;;;14.23;3.20;;;;;;;3.98;100.00;101064.63;1040588;28;20303;-78
2023/01/10 01:00:23;;;;;;;20.60;3.45;;;;;;;3.96;100.00;101063.16;1044413;28;20291;-78
2023/01/10 01:00:55;;;;;;;7.60;3.85;;;;;;;3.97;100.00;101068.25;1047922;28;20297;-78
2023/01/10 01:01:27;;;;;;;15.73;2.95;;;;;;;3.98;100.00;101059.34;1043145;28;20654;-78
2023/01/10 01:01:58;;;;;;;16.92;3.83;;;;;;;4.00;100.00;101060.00;1042831;28;20356;-78
2023/01/10 01:02:30;;;;;;;16.92;4.22;;;;;;;4.07;100.00;101068.06;1035841;28;20281;-78
2023/01/10 01:03:04;;;;;;;14.48;2.38;;;;;;;4.12;100.00;101064.94;1043204;28;20294;-78
2023/01/10 01:03:36;;;;;;;13.15;2.85;;;;;;;4.12;100.00;101067.56;1040812;28;20717;-78
2023/01/10 01:04:08;;;;;;;16.77;3.10;;;;;;;4.13;100.00;101072.69;1037985;28;20296;-78
2023/01/10 01:04:39;;;;;;;15.75;2.30;;;;;;;4.15;100.00;101069.88;1039077;28;20304;-78
2023/01/10 01:05:11;;;;;;;15.55;3.38;;;;;;;4.18;100.00;101069.53;1039879;28;20300;-79
2023/01/10 01:05:43;;;;;;;16.13;3.15;;;;;;;4.17;100.00;101073.97;1041732;28;20304;-79
2023/01/10 01:06:15;;;;;;;10.07;2.72;;;;;;;4.18;100.00;101070.34;1041900;28;20295;-78
2023/01/10 01:06:47;;;;;;;11.63;2.85;;;;;;;4.15;100.00;101070.69;1042414;28;20303;-78
2023/01/10 01:07:19;;;;;;;15.10;3.25;;;;;;;4.27;100.00;101073.78;1037181;28;20335;-78
2023/01/10 01:07:51;;;;;;;18.45;4.85;;;;;;;4.25;100.00;101075.75;1031402;28;20328;-78
2023/01/10 01:08:22;;;;;;;18.38;4.35;;;;;;;4.23;100.00;101080.38;1033446;28;20364;-78
2023/01/10 01:08:54;;;;;;;13.50;3.20;;;;;;;4.22;100.00;101084.00;1028056;28;20309;-78
2023/01/10 01:09:27;;;;;;;14.32;2.65;;;;;;;4.20;100.00;101084.19;1035840;28;20786;-78
2023/01/10 01:10:50;;;;;;;10.80;3.15;;;;;;;4.24;100.00;101077.56;1044817;28;20319;-78
2023/01/10 01:11:22;;;;;;;8.18;2.50;;;;;;;4.33;100.00;101084.47;1043612;28;20306;-78
2023/01/10 01:11:55;;;;;;;10.23;2.17;;;;;;;4.32;100.00;101079.34;1035965;28;20782;-78
2023/01/10 01:12:26;;;;;;;20.45;3.85;;;;;;;4.25;100.00;101075.75;1032090;28;20297;-78
2023/01/10 01:13:04;;;;;;;9.85;2.78;;;;;;;4.23;100.00;101078.56;1029502;28;20388;-78
2023/01/10 01:13:36;;;;;;;14.50;3.42;;;;;;;4.25;100.00;101081.84;1037320;28;20293;-78
2023/01/10 01:14:07;;;;;;;19.55;4.00;;;;;;;4.34;100.00;101080.00;1037207;28;20308;-78
2023/01/10 01:14:39;;;;;;;16.13;3.22;;;;;;;4.28;100.00;101083.31;1044290;28;20391;-78
2023/01/10 01:15:11;;;;;;;14.23;3.67;;;;;;;4.34;100.00;101085.28;1041953;28;20432;-78
2023/01/10 01:15:42;;;;;;;10.07;3.28;;;;;;;4.28;100.00;101086.78;1039978;28;20661;-78
2023/01/10 01:16:14;;;;;;;14.93;2.58;;;;;;;4.27;100.00;101084.31;1039318;28;20288;-78
2023/01/10 01:16:46;;;;;;;9.10;2.25;;;;;;;4.26;100.00;101082.69;1038757;28;20826;-78
2023/01/10 01:17:17;;;;;;;10.25;3.08;;;;;;;4.33;100.00;101088.91;1036368;28;20679;-78
2023/01/10 01:17:49;;;;;;;8.10;2.75;;;;;;;4.30;100.00;101089.25;1035590;28;20300;-78
2023/01/10 01:18:21;;;;;;;13.32;3.25;;;;;;;4.33;100.00;101083.63;1033311;28;20306;-79
2023/01/10 01:18:54;;;;;;;11.90;3.33;;;;;;;4.30;100.00;101078.72;1034222;28;20659;-78
2023/01/10 01:19:26;;;;;;;17.85;3.30;;;;;;;4.27;100.00;101079.03;1040147;28;20658;-78
2023/01/10 01:19:58;;;;;;;15.75;2.80;;;;;;;4.29;100.00;101084.97;1046913;28;20691;-79
2023/01/10 01:20:30;;;;;;;16.23;3.40;;;;;;;4.26;100.00;101087.94;1046747;28;20807;-78
2023/01/10 01:21:04;;;;;;;11.43;2.42;;;;;;;4.23;100.00;101083.84;1043937;28;20299;-78
2023/01/10 01:21:38;;;;;;;11.07;2.55;;;;;;;4.23;100.00;101083.03;1042553;28;20369;-79
2023/01/10 01:22:10;;;;;;;8.73;2.47;;;;;;;4.32;100.00;101082.00;1042215;28;20304;-79
2023/01/10 01:22:42;;;;;;;13.77;2.92;;;;;;;4.22;100.00;101081.38;1044115;28;20338;-78
2023/01/10 01:23:14;;;;;;;12.52;2.75;;;;;;;4.20;100.00;101081.53;1038362;28;20359;-78
2023/01/10 01:23:45;;;;;;;26.40;5.45;;;;;;;4.15;100.00;101077.78;1037720;28;20817;-79
2023/01/10 01:24:17;;;;;;;7.75;2.70;;;;;;;4.10;100.00;101094.06;1035122;28;20823;-78
2023/01/10 01:24:49;;;;;;;14.07;3.00;;;;;;;4.10;100.00;101090.59;1036713;28;20297;-79
2023/01/10 01:25:20;;;;;;;16.75;2.22;;;;;;;4.04;100.00;101087.66;1036452;28;20304;-79
2023/01/10 01:25:52;;;;;;;8.43;2.85;;;;;;;4.07;100.00;101094.41;1038280;28;20296;-79
2023/01/10 01:26:25;;;;;;;14.15;3.47;;;;;;;4.08;100.00;101092.59;1043866;28;20306;-79
2023/01/10 01:26:56;;;;;;;18.17;2.83;;;;;;;4.07;100.00;101088.31;1043124;28;20327;-79
2023/01/10 01:27:28;;;;;;;18.70;2.88;;;;;;;4.02;100.00;101094.91;1046829;28;20309;-79
2023/01/10 01:28:00;;;;;;;9.70;2.95;;;;;;;3.99;100.00;101091.78;1043811;28;20295;-78
2023/01/10 01:28:32;;;;;;;14.55;4.05;;;;;;;3.99;100.00;101094.44;1043952;28;20442;-79
2023/01/10 01:29:04;;;;;;;9.00;3.67;;;;;;;4.01;100.00;101095.91;1036539;28;20311;-79
2023/01/10 01:29:35;;;;;;;12.70;2.83;;;;;;;4.02;100.00;101094.91;1042200;28;20299;-79
2023/01/10 01:30:14;;;;;;;11.63;2.65;;;;;;;4.00;100.00;101089.00;1037709;28;20311;-79
2023/01/10 01:30:45;;;;;;;14.98;3.60;;;;;;;4.01;100.00;101089.81;1042282;28;20304;-78
2023/01/10 01:31:17;;;;;;;11.02;3.08;;;;;;;3.98;100.00;101109.41;1040150;28;20378;-79
2023/01/10 01:31:49;;;;;;;9.38;3.60;;;;;;;3.94;100.00;101100.22;1040149;28;20821;-78
2023/01/10 01:32:22;;;;;;;14.18;3.10;;;;;;;3.95;100.00;101101.03;1043799;28;20310;-79
2023/01/10 01:32:54;;;;;;;9.25;3.80;;;;;;;3.92;100.00;101102.19;1040049;28;20299;-79
2023/01/10 01:33:25;;;;;;;16.17;3.88;;;;;;;3.94;100.00;101105.47;1036165;28;20702;-79
2023/01/10 01:33:57;;;;;;;8.77;2.78;;;;;;;3.94;100.00;101102.84;1036469;28;20297;-79
2023/01/10 01:34:29;;;;;;;13.25;3.42;;;;;;;3.91;100.00;101105.81;1036306;28;20841;-78
2023/01/10 01:35:00;;;;;;;15.13;3.05;;;;;;;3.88;100.00;101106.16;1038279;28;20299;-79
2023/01/10 01:35:32;;;;;;;13.45;3.60;;;;;;;3.84;100.00;101112.75;1035499;28;20786;-79
2023/01/10 01:36:10;;;;;;;13.52;3.10;;;;;;;3.81;100.00;101113.03;1037449;28;20307;-79
2023/01/10 01:36:41;;;;;;;17.35;3.05;;;;;;;3.84;100.00;101109.28;1033316;28;20684;-79
2023/01/10 01:37:13;;;;;;;8.98;2.63;;;;;;;3.77;100.00;101119.63;1037427;28;20292;-79
2023/01/10 01:37:44;;;;;;;24.02;4.05;;;;;;;3.74;100.00;101119.97;1041854;28;20314;-79
2023/01/10 01:38:16;;;;;;;8.73;2.83;;;;;;;3.76;100.00;101123.25;1043225;28;20675;-79
2023/01/10 01:38:48;;;;;;;14.90;4.85;;;;;;;3.77;100.00;101114.38;1037846;28;20293;-79
2023/01/10 01:39:19;;;;;;;13.93;3.15;;;;;;;3.76;100.00;101118.00;1039848;28;20300;-79
2023/01/10 01:39:51;;;;;;;8.98;2.65;;;;;;;3.73;100.00;101113.06;1042632;28;20295;-79
2023/01/10 01:40:23;;;;;;;20.48;2.50;;;;;;;3.75;100.00;101115.53;1038817;28;20303;-78
2023/01/10 01:40:54;;;;;;;16.15;3.08;;;;;;;3.76;100.00;101118.00;1035759;28;20300;-79
2023/01/10 01:42:28;;;;;;;13.50;2.58;;;;;;;3.85;100.00;101121.47;1034188;28;20293;-78
2023/01/10 01:43:00;;;;;;;10.57;2.50;;;;;;;3.85;100.00;101124.94;1044407;28;20091;-79
2023/01/10 01:43:58;;;;;;;11.07;4.90;;;;;;;3.87;100.00;101124.75;1032896;28;20297;-78
2023/01/10 01:44:34;;;;;;;13.02;3.88;;;;;;;3.83;100.00;101121.59;1029709;28;20330;-79
2023/01/10 01:45:21;;;;;;;11.73;2.67;;;;;;;3.84;100.00;101123.28;1032027;28;20672;-78
2023/01/10 01:45:53;;;;;;;8.35;3.25;;;;;;;3.87;100.00;101122.94;1038221;28;20361;-79
2023/01/10 01:46:25;;;;;;;13.88;3.20;;;;;;;3.81;100.00;101131.47;1039262;28;20295;-79
2023/01/10 01:47:05;;;;;;;10.65;2.65;;;;;;;3.85;100.00;101137.28;1039373;28;20316;-78
2023/01/10 01:47:56;;;;;;;13.15;2.65;;;;;;;3.89;100.00;101123.59;1039414;28;20304;-79
2023/01/10 01:48:46;;;;;;;7.45;2.10;;;;;;;3.86;100.00;101129.22;1043756;28;20314;-79
2023/01/10 01:49:21;;;;;;;12.73;2.70;;;;;;;3.82;100.00;101135.75;1037837;28;20298;-79
2023/01/10 01:49:53;;;;;;;10.95;2.42;;;;;;;3.84;100.00;101130.38;1042172;28;20299;-78
2023/01/10 01:50:33;;;;;;;9.35;2.58;;;;;;;3.80;100.00;101135.09;1036746;28;20299;-79
2023/01/10 01:51:09;;;;;;;17.52;3.10;;;;;;;3.80;100.00;101132.47;1039077;28;20813;-78
2023/01/10 01:51:44;;;;;;;12.63;3.15;;;;;;;3.89;100.00;101139.41;1042373;28;20053;-79
2023/01/10 01:52:22;;;;;;;16.23;4.05;;;;;;;3.91;100.00;101142.72;1045051;28;20704;-79
2023/01/10 01:52:56;;;;;;;19.13;3.40;;;;;;;3.92;100.00;101144.34;1041360;28;20337;-79
2023/01/10 01:53:31;;;;;;;21.02;4.47;;;;;;;3.83;100.00;101147.94;1035584;28;20364;-79
2023/01/10 01:54:06;;;;;;;10.75;2.28;;;;;;;3.88;100.00;101148.31;1037834;28;20293;-79
2023/01/10 01:54:38;;;;;;;9.73;2.95;;;;;;;3.90;100.00;101146.34;1037932;28;20284;-79
2023/01/10 01:55:10;;;;;;;15.30;3.35;;;;;;;3.87;100.00;101145.84;1041615;28;20306;-78
2023/01/10 01:55:42;;;;;;;10.32;2.50;;;;;;;3.86;100.00;101155.56;1034711;28;20316;-79
2023/01/10 01:56:21;;;;;;;9.98;3.00;;;;;;;3.89;100.00;101149.94;1036692;28;20710;-78
2023/01/10 01:56:58;;;;;;;13.10;2.60;;;;;;;3.82;100.00;101158.66;1033103;28;20319;-78
2023/01/10 01:57:30;;;;;;;12.07;4.15;;;;;;;3.80;100.00;101150.91;1031862;28;20301;-79
2023/01/10 01:58:06;;;;;;;12.20;3.22;;;;;;;3.79;100.00;101154.53;1029405;28;20306;-79
2023/01/10 01:58:47;;;;;;;8.48;2.60;;;;;;;3.85;100.00;101159.19;1035185;28;20311;-79
2023/01/10 01:59:45;;;;;;;14.70;2.85;;;;;;;3.89;100.00;101159.66;1038129;28;20296;-79
2023/01/10 02:00:17;;;;;;;10.63;3.45;;;;;;;3.88;100.00;101158.84;1037322;28;20049;-79
2023/01/10 02:00:49;;;;;;;12.52;2.38;;;;;;;3.85;100.00;101158.34;1039115;28;20292;-79
2023/01/10 02:01:21;;;;;;;11.98;3.08;;;;;;;3.84;100.00;101162.81;1034937;28;20331;-79
2023/01/10 02:01:57;;;;;;;14.50;3.17;;;;;;;3.87;100.00;101162.47;1023838;28;20302;-78
2023/01/10 02:02:34;;;;;;;10.15;3.83;;;;;;;3.88;100.00;101158.03;1028712;28;20398;-78
2023/01/10 02:03:06;;;;;;;16.17;4.68;;;;;;;3.89;100.00;101163.13;1039353;28;20395;-79
2023/01/10 02:03:38;;;;;;;13.27;4.55;;;;;;;3.90;100.00;101154.22;1049434;28;20646;-79
2023/01/10 02:04:16;;;;;;;11.43;2.85;;;;;;;3.93;100.00;101161.81;1052356;28;20305;-78
2023/01/10 02:04:52;;;;;;;9.15;3.25;;;;;;;3.94;100.00;101160.81;1046894;28;20298;-79
2023/01/10 02:05:24;;;;;;;18.30;4.22;;;;;;;3.92;100.00;101165.44;1037756;28;20342;-79
2023/01/10 02:05:56;;;;;;;17.63;3.42;;;;;;;3.94;100.00;101158.19;1037075;28;20362;-79
2023/01/10 02:06:28;;;;;;;8.68;3.08;;;;;;;3.99;100.00;101161.13;1035024;28;20304;-78
2023/01/10 02:06:59;;;;;;;18.38;4.07;;;;;;;3.99;100.00;101161.13;1033910;28;20687;-78
2023/01/10 02:07:36;;;;;;;15.95;3.13;;;;;;;3.97;100.00;101165.75;1035457;28;20305;-78
2023/01/10 02:08:07;;;;;;;16.35;4.38;;;;;;;3.97;100.00;101160.47;1036286;28;20312;-79
2023/01/10 02:08:44;;;;;;;12.02;3.00;;;;;;;4.02;100.00;101155.53;1033506;28;20656;-78
2023/01/10 02:09:40;;;;;;;11.75;3.05;;;;;;;3.99;100.00;101163.78;1034790;28;20320;-79
2023/01/10 02:10:16;;;;;;;10.35;3.47;;;;;;;3.99;100.00;101170.84;1034475;28;20285;-79
2023/01/10 02:10:56;;;;;;;13.52;2.90;;;;;;;4.00;100.00;101161.97;1033666;28;20284;-78
2023/01/10 02:11:29;;;;;;;11.07;2.60;;;;;;;3.99;100.00;101161.13;1038235;28;21556;-79
2023/01/10 02:12:01;;;;;;;16.17;5.65;;;;;;;3.98;100.00;101163.94;1038055;28;20384;-78
2023/01/10 02:12:32;;;;;;;10.68;2.92;;;;;;;3.95;100.00;101165.09;1043917;28;20310;-78
2023/01/10 02:13:06;;;;;;;10.05;3.20;;;;;;;3.90;100.00;101159.50;1036269;28;20301;-79
2023/01/10 02:13:40;;;;;;;13.57;2.92;;;;;;;3.91;100.00;101163.78;1042028;28;20346;-78
2023/01/10 02:14:13;;;;;;;14.23;4.00;;;;;;;3.90;100.00;101162.13;1033587;28;20301;-79
2023/01/10 02:14:48;;;;;;;10.57;3.03;;;;;;;3.87;100.00;101157.19;1037871;28;20311;-79
2023/01/10 02:15:20;;;;;;;10.90;3.22;;;;;;;3.87;100.00;101162.47;1038753;28;20304;-79
2023/01/10 02:15:52;;;;;;;16.35;3.00;;;;;;;3.89;100.00;101160.50;1036949;28;20292;-79
2023/01/10 02:16:23;;;;;;;12.05;3.67;;;;;;;3.82;100.00;101154.22;1033473;28;20289;-79
2023/01/10 02:16:55;;;;;;;11.70;3.40;;;;;;;3.85;100.00;101158.34;1034995;28;20300;-79
2023/01/10 02:17:26;;;;;;;11.70;3.42;;;;;;;3.89;100.00;101157.03;1036151;28;20328;-79
2023/01/10 02:18:00;;;;;;;6.60;2.65;;;;;;;3.88;100.00;101155.38;1040173;28;20308;-79
2023/01/10 02:18:32;;;;;;;13.75;3.35;;;;;;;3.89;100.00;101165.75;1039292;28;20335;-79
2023/01/10 02:19:12;;;;;;;15.02;3.72;;;;;;;3.87;100.00;101156.38;1038965;28;21294;-78
2023/01/10 02:19:47;;;;;;;19.45;3.65;;;;;;;3.80;100.00;101156.19;1039572;28;20793;-79
2023/01/10 02:20:20;;;;;;;13.02;3.20;;;;;;;3.85;100.00;101156.53;1038962;28;20041;-79
2023/01/10 02:21:10;;;;;;;13.18;3.35;;;;;;;3.84;100.00;101162.81;1040022;28;20652;-79
2023/01/10 02:22:09;;;;;;;8.30;2.63;;;;;;;3.84;100.00;101154.06;1035461;28;20304;-78
2023/01/10 02:23:28;;;;;;;14.15;4.93;;;;;;;3.78;100.00;101157.34;1038103;28;20297;-78
2023/01/10 02:25:10;;;;;;;14.20;2.60;;;;;;;3.73;100.00;101158.66;1037353;28;20304;-79
2023/01/10 02:26:18;;;;;;;10.35;2.00;;;;;;;3.84;100.00;101161.97;1021874;28;20310;-79
2023/01/10 02:27:39;;;;;;;7.25;2.75;;;;;;;3.82;100.00;101159.47;1023491;29;20347;-79
2023/01/10 02:28:36;;;;;;;12.68;2.58;;;;;;;3.85;100.00;101164.44;1024308;28;20832;-79
2023/01/10 02:29:19;;;;;;;17.00;2.88;;;;;;;3.87;100.00;101173.00;1040664;28;20141;-79
2023/01/10 02:30:12;;;;;;;10.25;2.78;;;;;;;3.86;100.00;101160.81;1052137;28;20308;-79
2023/01/10 02:30:59;;;;;;;13.35;2.97;;;;;;;3.95;100.00;101169.53;1046404;28;20378;-79
2023/01/10 02:31:48;;;;;;;9.02;2.28;;;;;;;3.95;100.00;101173.00;1039441;28;20734;-79
2023/01/10 02:32:41;;;;;;;13.70;3.45;;;;;;;3.94;100.00;101173.16;1036818;28;20304;-78
2023/01/10 02:34:08;;;;;;;10.25;2.28;;;;;;;3.91;100.00;101171.69;1041775;28;20374;-79
2023/01/10 02:35:03;;;;;;;8.55;2.35;;;;;;;3.90;100.00;101177.94;1047147;28;20490;-78
2023/01/10 02:35:59;;;;;;;11.18;2.35;;;;;;;3.91;100.00;101178.78;1038875;28;20300;-78
2023/01/10 02:36:48;;;;;;;10.10;2.13;;;;;;;3.90;100.00;101177.13;1042290;28;20302;-79
2023/01/10 02:37:38;;;;;;;9.88;1.98;;;;;;;3.87;100.00;101177.47;1043474;28;20287;-79
2023/01/10 02:38:21;;;;;;;8.50;2.25;;;;;;;3.86;100.00;101176.63;1045006;28;20311;-79
2023/01/10 02:39:15;;;;;;;9.93;2.55;;;;;;;3.89;100.00;101176.31;1046534;28;20040;-79
2023/01/10 02:39:57;;;;;;;11.43;3.63;;;;;;;3.91;100.00;101184.88;1041582;28;20314;-78
2023/01/10 02:40:34;;;;;;;;;;;;;;;3.98;100.00;101175.31;1042494;28;20311;-78
2023/01/10 02:41:15;;;;;;;8.25;3.47;;;;;;;3.95;100.00;101178.28;1045749;28;19921;-79
2023/01/10 02:42:01;;;;;;;9.68;1.98;;;;;;;4.00;100.00;101183.06;1042364;28;20307;-78
2023/01/10 02:42:40;;;;;;;10.93;2.60;;;;;;;3.96;100.00;101182.56;1048397;28;20307;-79
2023/01/10 02:43:20;;;;;;;16.88;3.30;;;;;;;4.00;100.00;101183.88;1051712;28;20304;-79
2023/01/10 02:44:18;;;;;;;12.43;4.13;;;;;;;4.01;100.00;101180.25;1052065;28;20381;-78
2023/01/10 02:44:56;;;;;;;13.38;2.75;;;;;;;4.00;100.00;101185.69;1044994;28;20299;-79
2023/01/10 02:45:33;;;;;;;20.63;2.50;;;;;;;3.96;100.00;101187.00;1047688;28;20664;-78
2023/01/10 02:46:12;;;;;;;10.68;3.15;;;;;;;3.99;100.00;101184.03;1042368;28;20302;-79
2023/01/10 02:46:45;;;;;;;21.45;2.50;;;;;;;3.92;100.00;101181.25;1040912;28;20338;-78
2023/01/10 02:47:17;;;;;;;9.25;2.70;;;;;;;3.90;100.00;101188.50;1038290;28;20304;-79
2023/01/10 02:47:49;;;;;;;13.30;2.85;;;;;;;3.88;100.00;101185.19;1039721;28;20296;-78
2023/01/10 02:48:21;;;;;;;13.80;2.90;;;;;;;3.91;100.00;101184.88;1039615;28;20300;-78
2023/01/10 02:48:53;;;;;;;9.32;2.38;;;;;;;3.91;100.00;101181.41;1035998;28;20313;-79
2023/01/10 02:49:25;;;;;;;11.88;2.97;;;;;;;3.91;100.00;101181.41;1042867;28;21149;-79
2023/01/10 02:49:57;;;;;;;17.05;3.08;;;;;;;3.87;100.00;101180.91;1046056;28;20290;-78